Time;durP1;ratioP1;P1;durP2;ratioP2;P2;SDS_P1;SDS_P2;PMS_P1;PMS_P2;Temp;Humidity;BMP_temperature;BMP_pressure;BME280_temperature;BME280_humidity;BME280_pressure;Samples;Min_cycle;Max_cycle;Signal;HPM_P1;HPM_P2
2023/08/02 00:02:16;;;;;;;5.20;2.47;;;;;;;;;;5050741;28;20224;-73
2023/08/02 00:04:43;;;;;;;4.93;2.53;;;;;;;;;;5033267;28;20319;-73
2023/08/02 00:07:09;;;;;;;4.83;2.50;;;;;;;;;;5013375;28;20550;-73
2023/08/02 00:09:35;;;;;;;4.70;2.53;;;;;;;;;;5031305;28;20296;-73
2023/08/02 00:12:01;;;;;;;4.37;2.10;;;;;;;;;;5033004;28;20657;-73
2023/08/02 00:14:27;;;;;;;4.57;2.40;;;;;;;;;;5032933;28;20558;-72
2023/08/02 00:16:53;;;;;;;4.80;2.27;;;;;;;;;;5016078;28;20593;-73
2023/08/02 00:19:19;;;;;;;5.03;2.40;;;;;;;;;;5024812;28;20170;-73
2023/08/02 00:21:46;;;;;;;4.13;2.13;;;;;;;;;;5016347;28;20204;-73
2023/08/02 00:24:12;;;;;;;4.63;2.20;;;;;;;;;;5050575;28;20184;-72
2023/08/02 00:26:38;;;;;;;4.40;2.37;;;;;;;;;;5050186;28;20194;-73
2023/08/02 00:29:04;;;;;;;4.50;2.30;;;;;;;;;;5032987;28;20661;-72
2023/08/02 00:31:30;;;;;;;4.17;2.30;;;;;;;;;;5050305;28;20597;-72
2023/08/02 00:33:56;;;;;;;3.93;2.33;;;;;;;;;;5050196;28;20190;-73
2023/08/02 00:36:23;;;;;;;4.33;2.30;;;;;;;;;;5050036;28;20247;-73
2023/08/02 00:38:49;;;;;;;4.80;2.50;;;;;;;;;;5032572;28;20484;-73
2023/08/02 00:41:15;;;;;;;3.80;2.50;;;;;;;;;;5029791;28;20170;-73
2023/08/02 00:43:47;;;;;;;3.70;2.50;;;;;;;;;;5040191;28;20548;-73
2023/08/02 00:46:14;;;;;;;3.67;2.37;;;;;;;;;;5016329;28;20209;-73
2023/08/02 00:48:41;;;;;;;2.70;2.10;;;;;;;;;;5050143;28;20190;-73
2023/08/02 00:51:08;;;;;;;4.13;2.47;;;;;;;;;;5012878;28;20340;-73
2023/08/02 00:53:35;;;;;;;3.57;2.10;;;;;;;;;;5031210;28;20758;-73
2023/08/02 00:56:01;;;;;;;4.80;2.23;;;;;;;;;;5032884;28;20214;-74
2023/08/02 00:58:27;;;;;;;4.87;2.40;;;;;;;;;;5003261;28;20213;-74
2023/08/02 01:00:54;;;;;;;3.80;2.33;;;;;;;;;;5031636;28;20217;-74
2023/08/02 01:03:20;;;;;;;4.43;2.30;;;;;;;;;;5033888;28;20213;-74
2023/08/02 01:05:50;;;;;;;4.87;2.00;;;;;;;;;;5050112;28;20541;-74
2023/08/02 01:08:19;;;;;;;3.07;2.13;;;;;;;;;;5033752;28;20201;-74
2023/08/02 01:10:47;;;;;;;4.90;2.40;;;;;;;;;;5030756;28;20587;-74
2023/08/02 01:13:15;;;;;;;3.33;2.27;;;;;;;;;;5049363;28;20678;-74
2023/08/02 01:15:41;;;;;;;3.20;1.90;;;;;;;;;;5031742;28;20551;-74
2023/08/02 01:18:08;;;;;;;3.47;2.00;;;;;;;;;;5031564;28;20181;-74
2023/08/02 01:20:34;;;;;;;3.30;2.00;;;;;;;;;;5030035;28;20579;-74
2023/08/02 01:23:01;;;;;;;2.93;2.27;;;;;;;;;;5049335;28;20210;-73
2023/08/02 01:25:29;;;;;;;2.90;2.17;;;;;;;;;;5031619;28;20186;-73
2023/08/02 01:27:59;;;;;;;3.17;2.30;;;;;;;;;;5043507;28;20599;-73
2023/08/02 01:30:30;;;;;;;5.10;2.60;;;;;;;;;;5049792;28;20183;-74
2023/08/02 01:32:56;;;;;;;4.93;2.30;;;;;;;;;;5020123;28;20284;-74
2023/08/02 01:35:23;;;;;;;3.83;2.37;;;;;;;;;;5031571;28;20724;-74
2023/08/02 01:37:49;;;;;;;3.47;2.13;;;;;;;;;;5028464;28;20239;-73
2023/08/02 01:40:16;;;;;;;2.63;2.03;;;;;;;;;;5031838;28;20246;-74
2023/08/02 01:42:42;;;;;;;3.53;2.40;;;;;;;;;;5042147;28;20194;-74
2023/08/02 01:45:08;;;;;;;3.70;2.30;;;;;;;;;;5049276;28;20539;-74
2023/08/02 01:47:35;;;;;;;4.57;2.50;;;;;;;;;;5042383;28;20337;-74
2023/08/02 01:50:01;;;;;;;5.17;2.20;;;;;;;;;;5033239;28;20591;-74
2023/08/02 01:52:27;;;;;;;5.20;2.60;;;;;;;;;;4994920;28;20546;-74
2023/08/02 01:54:54;;;;;;;3.20;2.20;;;;;;;;;;5048859;28;20440;-73
2023/08/02 01:57:20;;;;;;;4.43;2.30;;;;;;;;;;5014203;28;20178;-73
2023/08/02 01:59:46;;;;;;;3.30;2.43;;;;;;;;;;5031034;28;20653;-73
2023/08/02 02:02:13;;;;;;;4.77;2.20;;;;;;;;;;5011222;28;20760;-73
2023/08/02 02:04:39;;;;;;;3.20;2.23;;;;;;;;;;5014383;28;20221;-73
2023/08/02 02:07:06;;;;;;;5.50;2.20;;;;;;;;;;5037291;28;20174;-73
2023/08/02 02:09:32;;;;;;;6.33;2.87;;;;;;;;;;5013899;28;20200;-73
2023/08/02 02:11:58;;;;;;;4.73;2.30;;;;;;;;;;5042383;28;20190;-73
2023/08/02 02:14:25;;;;;;;3.33;2.30;;;;;;;;;;5030211;28;20182;-73
2023/08/02 02:16:52;;;;;;;3.40;2.30;;;;;;;;;;5012288;28;20213;-73
2023/08/02 02:19:19;;;;;;;4.10;2.40;;;;;;;;;;5048468;28;20230;-74
2023/08/02 02:21:45;;;;;;;3.37;2.20;;;;;;;;;;5029039;28;20239;-74
2023/08/02 02:24:12;;;;;;;6.30;2.40;;;;;;;;;;5030596;28;20180;-73
2023/08/02 02:26:38;;;;;;;5.37;2.40;;;;;;;;;;5047816;28;21392;-73
2023/08/02 02:29:04;;;;;;;4.83;2.23;;;;;;;;;;5011008;28;20182;-74
2023/08/02 02:31:31;;;;;;;3.93;2.30;;;;;;;;;;5028651;28;20186;-74
2023/08/02 02:33:57;;;;;;;2.90;2.20;;;;;;;;;;5026912;28;20179;-74
2023/08/02 02:36:23;;;;;;;6.50;2.57;;;;;;;;;;5030105;28;20205;-74
2023/08/02 02:38:52;;;;;;;2.53;2.00;;;;;;;;;;5013693;28;20190;-74
2023/08/02 02:41:18;;;;;;;5.00;2.40;;;;;;;;;;5027328;28;20568;-74
2023/08/02 02:43:45;;;;;;;6.20;2.20;;;;;;;;;;5033073;28;20182;-74
2023/08/02 02:46:11;;;;;;;6.40;2.30;;;;;;;;;;5013874;28;20191;-74
2023/08/02 02:48:37;;;;;;;2.77;1.93;;;;;;;;;;5047745;28;20650;-74
2023/08/02 02:51:03;;;;;;;3.43;2.37;;;;;;;;;;5030287;28;20606;-74
2023/08/02 02:53:29;;;;;;;3.17;2.10;;;;;;;;;;5013451;28;20280;-74
2023/08/02 02:55:56;;;;;;;3.73;2.33;;;;;;;;;;4994062;28;20218;-74
2023/08/02 02:58:23;;;;;;;3.63;2.30;;;;;;;;;;5030255;28;20177;-74
2023/08/02 03:00:49;;;;;;;2.30;2.10;;;;;;;;;;5030088;28;20557;-74
2023/08/02 03:03:16;;;;;;;4.13;2.40;;;;;;;;;;5013856;28;20226;-74
2023/08/02 03:05:42;;;;;;;4.00;2.00;;;;;;;;;;5040243;28;20182;-74
2023/08/02 03:08:08;;;;;;;5.07;2.13;;;;;;;;;;5041904;28;20192;-74
2023/08/02 03:10:34;;;;;;;3.27;2.07;;;;;;;;;;5027187;28;20196;-74
2023/08/02 03:13:00;;;;;;;3.63;2.00;;;;;;;;;;5030048;28;20198;-74
2023/08/02 03:15:26;;;;;;;3.60;2.33;;;;;;;;;;5029615;28;20397;-74
2023/08/02 03:17:53;;;;;;;4.33;2.20;;;;;;;;;;5029832;28;20189;-73
2023/08/02 03:20:19;;;;;;;5.10;2.10;;;;;;;;;;5047811;28;20181;-74
2023/08/02 03:22:45;;;;;;;2.80;2.30;;;;;;;;;;5010455;28;20205;-74
2023/08/02 03:25:11;;;;;;;3.57;2.10;;;;;;;;;;5042107;28;20561;-74
2023/08/02 03:27:37;;;;;;;2.90;1.90;;;;;;;;;;5046288;28;20216;-74
2023/08/02 03:30:03;;;;;;;4.27;2.03;;;;;;;;;;5013335;28;20216;-74
2023/08/02 03:32:31;;;;;;;3.90;2.17;;;;;;;;;;5034292;28;20293;-74
2023/08/02 03:34:57;;;;;;;3.00;2.13;;;;;;;;;;5041118;28;20201;-74
2023/08/02 03:37:23;;;;;;;3.03;2.00;;;;;;;;;;4987488;28;20277;-74
2023/08/02 03:39:49;;;;;;;3.10;2.10;;;;;;;;;;5029422;28;20201;-73
2023/08/02 03:42:15;;;;;;;4.33;2.27;;;;;;;;;;5047201;28;20316;-73
2023/08/02 03:44:42;;;;;;;4.40;2.07;;;;;;;;;;5038924;28;20557;-73
2023/08/02 03:47:08;;;;;;;4.43;2.10;;;;;;;;;;5042241;28;20201;-74
2023/08/02 03:49:34;;;;;;;4.73;2.10;;;;;;;;;;5029482;28;20182;-74
2023/08/02 03:52:00;;;;;;;5.53;1.93;;;;;;;;;;5038229;28;20294;-74
2023/08/02 03:54:26;;;;;;;4.07;2.17;;;;;;;;;;5012923;28;20700;-74
2023/08/02 03:56:52;;;;;;;3.40;2.03;;;;;;;;;;5044372;28;20213;-74
2023/08/02 03:59:18;;;;;;;3.23;2.07;;;;;;;;;;5044171;28;20213;-73
2023/08/02 04:01:45;;;;;;;5.63;2.17;;;;;;;;;;5029242;28;20206;-74
2023/08/02 04:04:11;;;;;;;4.37;2.20;;;;;;;;;;5029316;28;20674;-74
2023/08/02 04:06:37;;;;;;;2.57;2.00;;;;;;;;;;5033751;28;20174;-74
2023/08/02 04:09:03;;;;;;;4.27;2.20;;;;;;;;;;5029315;28;20221;-73
2023/08/02 04:11:31;;;;;;;3.43;2.30;;;;;;;;;;5027063;28;20533;-74
2023/08/02 04:13:57;;;;;;;4.87;2.10;;;;;;;;;;5046648;28;20186;-73
2023/08/02 04:16:23;;;;;;;4.70;2.17;;;;;;;;;;5011993;28;20225;-74
2023/08/02 04:18:49;;;;;;;3.83;2.00;;;;;;;;;;5046994;28;20197;-74
2023/08/02 04:21:19;;;;;;;4.83;2.27;;;;;;;;;;5012760;28;20264;-73
2023/08/02 04:23:47;;;;;;;4.13;2.00;;;;;;;;;;5038746;28;20174;-74
2023/08/02 04:26:14;;;;;;;3.50;2.20;;;;;;;;;;5046648;28;20205;-73
2023/08/02 04:28:40;;;;;;;4.77;2.20;;;;;;;;;;5029120;28;20232;-74
2023/08/02 04:31:06;;;;;;;3.23;2.07;;;;;;;;;;5029162;28;20200;-74
2023/08/02 04:33:32;;;;;;;3.80;2.20;;;;;;;;;;4992918;28;20206;-73
2023/08/02 04:35:59;;;;;;;3.13;1.90;;;;;;;;;;5050909;28;20239;-74
2023/08/02 04:38:25;;;;;;;3.30;2.10;;;;;;;;;;5050231;28;20201;-73
2023/08/02 04:40:52;;;;;;;3.67;2.17;;;;;;;;;;5044014;28;20174;-74
2023/08/02 04:43:18;;;;;;;4.53;2.03;;;;;;;;;;5050457;28;20197;-74
2023/08/02 04:45:44;;;;;;;3.90;2.20;;;;;;;;;;5014400;28;20178;-74
2023/08/02 04:48:10;;;;;;;2.20;2.00;;;;;;;;;;5039165;28;20293;-74
2023/08/02 04:50:36;;;;;;;2.97;1.90;;;;;;;;;;5050241;28;20178;-73
2023/08/02 04:53:02;;;;;;;4.00;2.57;;;;;;;;;;5045895;28;20207;-74
2023/08/02 04:55:29;;;;;;;2.80;2.20;;;;;;;;;;5030442;28;20291;-73
2023/08/02 04:57:55;;;;;;;4.43;2.43;;;;;;;;;;5043404;28;20170;-74
2023/08/02 05:00:21;;;;;;;3.83;2.03;;;;;;;;;;5049971;28;20193;-73
2023/08/02 05:02:47;;;;;;;3.80;2.33;;;;;;;;;;5014281;28;20210;-74
2023/08/02 05:05:13;;;;;;;2.70;2.10;;;;;;;;;;5050506;28;20186;-74
2023/08/02 05:07:40;;;;;;;3.57;2.10;;;;;;;;;;5030679;28;20308;-74
2023/08/02 05:10:06;;;;;;;3.33;2.40;;;;;;;;;;5000076;22;20610;-76
2023/08/02 05:12:40;;;;;;;4.33;2.20;;;;;;;;;;4995599;28;20563;-76
2023/08/02 05:15:07;;;;;;;5.07;2.40;;;;;;;;;;5006649;28;20211;-76
2023/08/02 05:17:33;;;;;;;3.33;2.60;;;;;;;;;;4983060;28;20180;-76
2023/08/02 05:20:00;;;;;;;4.10;2.10;;;;;;;;;;4995242;28;20226;-76
2023/08/02 05:22:26;;;;;;;3.60;2.50;;;;;;;;;;5001347;28;20215;-76
2023/08/02 05:24:53;;;;;;;4.80;2.50;;;;;;;;;;4976127;28;20390;-76
2023/08/02 05:27:19;;;;;;;4.90;2.93;;;;;;;;;;4995177;28;20263;-75
2023/08/02 05:29:46;;;;;;;3.30;2.60;;;;;;;;;;4989686;28;20211;-76
2023/08/02 05:32:12;;;;;;;3.40;2.80;;;;;;;;;;4995232;28;20200;-76
2023/08/02 05:34:38;;;;;;;4.07;2.53;;;;;;;;;;4976991;28;20188;-75
2023/08/02 05:37:05;;;;;;;5.17;2.70;;;;;;;;;;5000044;28;20179;-75
2023/08/02 05:39:31;;;;;;;6.13;2.47;;;;;;;;;;4997159;28;20547;-75
2023/08/02 05:41:57;;;;;;;5.10;2.53;;;;;;;;;;4988973;28;20199;-76
2023/08/02 05:44:23;;;;;;;4.13;2.60;;;;;;;;;;4993976;28;20711;-75
2023/08/02 05:46:49;;;;;;;5.80;2.70;;;;;;;;;;5001828;28;20255;-75
2023/08/02 05:49:15;;;;;;;5.10;2.57;;;;;;;;;;4995280;28;20211;-75
2023/08/02 05:51:42;;;;;;;4.30;2.83;;;;;;;;;;4994319;28;20231;-76
2023/08/02 05:54:08;;;;;;;4.33;2.73;;;;;;;;;;4997470;28;20274;-76
2023/08/02 05:56:34;;;;;;;4.50;3.00;;;;;;;;;;4985819;28;20211;-75
2023/08/02 05:59:00;;;;;;;4.83;2.80;;;;;;;;;;4994063;28;20175;-75
2023/08/02 06:01:26;;;;;;;4.40;3.00;;;;;;;;;;4980805;28;20191;-75
2023/08/02 06:03:53;;;;;;;5.63;2.90;;;;;;;;;;4987437;28;20770;-75
2023/08/02 06:06:19;;;;;;;4.47;2.90;;;;;;;;;;4996126;28;20207;-75
2023/08/02 06:08:47;;;;;;;3.07;2.73;;;;;;;;;;4992760;28;20188;-75
2023/08/02 06:11:13;;;;;;;4.87;3.27;;;;;;;;;;4990202;28;20553;-75
2023/08/02 06:13:39;;;;;;;4.47;3.00;;;;;;;;;;4996347;28;20270;-74
2023/08/02 06:16:05;;;;;;;5.03;3.10;;;;;;;;;;4975171;28;20298;-75
2023/08/02 06:18:31;;;;;;;3.60;3.10;;;;;;;;;;5008838;28;20183;-76
2023/08/02 06:20:58;;;;;;;3.33;3.03;;;;;;;;;;4998814;28;20189;-74
2023/08/02 06:23:24;;;;;;;5.20;2.93;;;;;;;;;;4988333;28;20751;-74
2023/08/02 06:25:50;;;;;;;4.40;3.03;;;;;;;;;;4991758;28;20195;-74
2023/08/02 06:28:16;;;;;;;3.97;2.80;;;;;;;;;;4990595;28;20251;-74
2023/08/02 06:30:42;;;;;;;3.57;2.80;;;;;;;;;;4990873;28;20188;-74
2023/08/02 06:33:08;;;;;;;3.63;2.67;;;;;;;;;;4982306;28;20207;-73
2023/08/02 06:35:35;;;;;;;3.40;3.10;;;;;;;;;;4991547;28;20222;-74
2023/08/02 06:38:01;;;;;;;4.90;3.20;;;;;;;;;;4988635;28;20191;-73
2023/08/02 06:40:27;;;;;;;3.50;3.20;;;;;;;;;;4988940;28;20184;-73
2023/08/02 06:42:53;;;;;;;4.70;3.27;;;;;;;;;;4987160;28;20204;-73
2023/08/02 06:45:19;;;;;;;5.73;3.03;;;;;;;;;;4969089;28;20569;-73
2023/08/02 06:47:45;;;;;;;3.00;2.70;;;;;;;;;;4991444;28;20237;-73
2023/08/02 06:50:11;;;;;;;3.87;3.07;;;;;;;;;;4987195;28;20188;-72
2023/08/02 06:52:37;;;;;;;4.13;2.87;;;;;;;;;;4995868;28;20214;-74
2023/08/02 06:55:04;;;;;;;5.40;3.30;;;;;;;;;;4978611;28;20393;-73
2023/08/02 06:57:31;;;;;;;3.17;2.87;;;;;;;;;;4994269;28;20176;-74
2023/08/02 06:59:57;;;;;;;3.70;2.60;;;;;;;;;;4989993;28;20187;-74
2023/08/02 07:02:23;;;;;;;3.20;2.73;;;;;;;;;;4989841;28;20203;-74
2023/08/02 07:04:49;;;;;;;3.83;2.50;;;;;;;;;;4979860;28;20192;-74
2023/08/02 07:07:15;;;;;;;3.40;2.70;;;;;;;;;;4992437;28;20180;-76
2023/08/02 07:09:42;;;;;;;4.47;2.83;;;;;;;;;;4989561;28;20207;-75
2023/08/02 07:12:08;;;;;;;3.40;3.07;;;;;;;;;;4989736;28;20558;-73
2023/08/02 07:14:34;;;;;;;4.03;2.67;;;;;;;;;;4989955;28;20191;-72
2023/08/02 07:17:00;;;;;;;3.47;2.90;;;;;;;;;;4972396;28;20222;-74
2023/08/02 07:19:26;;;;;;;5.40;2.60;;;;;;;;;;5005171;28;20281;-74
2023/08/02 07:21:52;;;;;;;2.90;2.60;;;;;;;;;;4997390;28;20573;-74
2023/08/02 07:24:19;;;;;;;3.40;2.83;;;;;;;;;;4972894;28;20176;-74
2023/08/02 07:26:45;;;;;;;4.87;2.83;;;;;;;;;;4987196;28;20372;-74
2023/08/02 07:29:11;;;;;;;2.93;2.40;;;;;;;;;;4989905;28;20211;-74
2023/08/02 07:31:37;;;;;;;3.97;2.83;;;;;;;;;;4973464;28;20191;-74
2023/08/02 07:34:03;;;;;;;3.53;2.90;;;;;;;;;;4989401;28;20204;-74
2023/08/02 07:36:29;;;;;;;3.10;2.53;;;;;;;;;;4989351;28;20298;-74
2023/08/02 07:38:55;;;;;;;3.00;2.60;;;;;;;;;;4990184;28;20244;-74
2023/08/02 07:41:22;;;;;;;3.73;2.50;;;;;;;;;;4973055;28;20195;-74
2023/08/02 07:43:48;;;;;;;3.40;2.67;;;;;;;;;;4982414;28;20176;-73
2023/08/02 07:46:18;;;;;;;3.63;2.63;;;;;;;;;;4990166;28;20307;-74
2023/08/02 07:48:44;;;;;;;2.97;2.60;;;;;;;;;;4972424;28;20191;-74
2023/08/02 07:51:10;;;;;;;2.93;2.30;;;;;;;;;;4982433;28;20206;-74
2023/08/02 07:53:36;;;;;;;3.00;2.43;;;;;;;;;;4990167;28;20215;-76
2023/08/02 07:56:02;;;;;;;3.13;2.40;;;;;;;;;;4976816;28;20787;-77
2023/08/02 07:58:29;;;;;;;2.60;2.33;;;;;;;;;;4971782;28;20603;-73
2023/08/02 08:00:55;;;;;;;5.23;2.20;;;;;;;;;;4987615;28;20181;-73
2023/08/02 08:03:21;;;;;;;3.67;2.20;;;;;;;;;;4987014;28;20443;-74
2023/08/02 08:05:47;;;;;;;3.70;2.10;;;;;;;;;;4953961;28;20176;-73
2023/08/02 08:08:14;;;;;;;2.30;2.10;;;;;;;;;;4985509;28;20614;-75
2023/08/02 08:10:40;;;;;;;2.50;2.20;;;;;;;;;;4994266;28;20216;-74
2023/08/02 08:13:06;;;;;;;2.73;1.80;;;;;;;;;;4993629;28;20569;-74
2023/08/02 08:15:33;;;;;;;2.30;1.90;;;;;;;;;;5002017;28;20723;-75
2023/08/02 08:17:59;;;;;;;3.87;2.00;;;;;;;;;;4993782;28;20207;-75
2023/08/02 08:20:25;;;;;;;2.53;1.83;;;;;;;;;;4977431;28;20176;-75
2023/08/02 08:22:51;;;;;;;2.20;2.00;;;;;;;;;;4976864;28;20207;-73
2023/08/02 08:25:17;;;;;;;3.40;2.23;;;;;;;;;;4960900;28;20184;-73
2023/08/02 08:27:43;;;;;;;2.33;2.13;;;;;;;;;;4994686;28;20184;-73
2023/08/02 08:30:10;;;;;;;3.37;2.20;;;;;;;;;;4994804;28;20187;-75
2023/08/02 08:32:36;;;;;;;2.50;1.90;;;;;;;;;;4993845;28;20211;-75
2023/08/02 08:35:03;;;;;;;2.67;2.20;;;;;;;;;;4975242;28;20326;-75
2023/08/02 08:37:29;;;;;;;3.10;1.70;;;;;;;;;;4992704;28;20277;-75
2023/08/02 08:39:56;;;;;;;2.50;1.80;;;;;;;;;;4992663;28;20179;-75
2023/08/02 08:42:22;;;;;;;2.10;1.90;;;;;;;;;;4992528;28;20203;-75
2023/08/02 08:44:48;;;;;;;2.07;1.87;;;;;;;;;;4998753;28;20187;-73
2023/08/02 08:47:17;;;;;;;2.17;1.77;;;;;;;;;;4992686;28;20187;-73
2023/08/02 08:49:45;;;;;;;1.83;1.70;;;;;;;;;;4992238;28;20231;-73
2023/08/02 08:52:12;;;;;;;5.30;2.00;;;;;;;;;;4973313;28;20458;-73
2023/08/02 08:54:39;;;;;;;2.10;1.90;;;;;;;;;;4965826;28;20184;-74
2023/08/02 08:57:06;;;;;;;2.20;2.00;;;;;;;;;;4992413;28;20231;-73
2023/08/02 08:59:32;;;;;;;4.27;2.33;;;;;;;;;;4992240;28;20304;-73
2023/08/02 09:01:59;;;;;;;2.50;2.20;;;;;;;;;;4991948;28;20202;-74
2023/08/02 09:04:26;;;;;;;2.73;2.00;;;;;;;;;;4974586;28;20184;-72
2023/08/02 09:06:52;;;;;;;3.47;2.30;;;;;;;;;;4992122;28;20644;-73
2023/08/02 09:09:18;;;;;;;2.90;2.20;;;;;;;;;;4992057;28;20330;-73
2023/08/02 09:11:45;;;;;;;2.10;1.90;;;;;;;;;;4992084;28;20239;-73
2023/08/02 09:14:15;;;;;;;3.00;2.10;;;;;;;;;;4981160;28;20179;-74
2023/08/02 09:17:08;;;;;;;2.50;2.30;;;;;;;;;;4974469;28;20210;-74
2023/08/02 09:19:36;;;;;;;2.63;2.17;;;;;;;;;;4980165;28;20189;-73
2023/08/02 09:26:14;;;;;;;2.67;2.10;;;;;;;;;;4992318;28;20254;-74
2023/08/02 09:28:40;;;;;;;2.30;2.10;;;;;;;;;;4992449;28;20227;-74
2023/08/02 09:31:13;;;;;;;3.30;2.23;;;;;;;;;;4980579;28;20564;-74
2023/08/02 09:33:50;;;;;;;3.30;2.40;;;;;;;;;;4974986;28;20569;-74
2023/08/02 09:36:42;;;;;;;4.30;3.30;;;;;;;;;;4991784;28;20207;-74
2023/08/02 09:39:13;;;;;;;2.70;2.10;;;;;;;;;;4994300;28;20199;-73
2023/08/02 09:41:40;;;;;;;4.70;2.30;;;;;;;;;;5012611;28;20203;-74
2023/08/02 09:44:07;;;;;;;4.03;2.33;;;;;;;;;;4998879;28;20192;-74
2023/08/02 09:46:34;;;;;;;3.47;2.10;;;;;;;;;;4991520;28;20188;-74
2023/08/02 09:49:19;;;;;;;2.90;2.10;;;;;;;;;;4985661;28;20547;-72
2023/08/02 09:51:46;;;;;;;3.27;2.50;;;;;;;;;;4991187;28;20250;-74
2023/08/02 09:54:13;;;;;;;2.67;2.20;;;20.50;99.90;;;;;;4991307;28;20184;-74
2023/08/02 09:56:40;;;;;;;2.53;2.30;;;;;;;;;;4990966;28;20210;-74
2023/08/02 09:59:07;;;;;;;3.33;2.50;;;19.20;99.90;;;;;;4991160;28;20195;-74
2023/08/02 10:01:34;;;;;;;2.80;2.33;;;;;;;;;;4991181;28;20267;-74
2023/08/02 10:04:03;;;;;;;2.60;2.40;;;;;;;;;;4967425;28;20187;-74
2023/08/02 10:06:55;;;;;;;2.70;2.50;;;19.00;99.90;;;;;;4991415;28;20195;-74
2023/08/02 10:09:25;;;;;;;2.90;2.60;;;19.10;99.90;;;;;;4969580;28;20203;-74
2023/08/02 10:11:51;;;;;;;3.10;2.80;;;;;;;;;;4997006;28;20207;-74
2023/08/02 10:14:17;;;;;;;3.90;2.90;;;;;;;;;;4991468;28;20207;-73
2023/08/02 10:16:45;;;;;;;4.87;3.07;;;;;;;;;;4991310;28;20318;-74
2023/08/02 10:19:14;;;;;;;4.53;2.87;;;;;;;;;;4991114;28;20192;-74
2023/08/02 10:21:40;;;;;;;4.57;3.27;;;;;;;;;;4973773;28;20546;-74
2023/08/02 10:24:07;;;;;;;3.47;2.80;;;;;;;;;;4990792;28;20176;-74
2023/08/02 10:26:33;;;;;;;4.23;3.33;;;;;;;;;;4990402;28;20477;-73
2023/08/02 10:29:00;;;;;;;3.47;2.97;;;;;;;;;;4992267;28;20183;-72
2023/08/02 10:31:27;;;;;;;5.10;3.53;;;;;;;;;;4991728;28;20198;-74
2023/08/02 10:33:53;;;;;;;3.90;3.50;;;;;;;;;;4990554;28;20184;-74
2023/08/02 10:36:19;;;;;;;5.37;3.80;;;;;;;;;;4972737;28;20567;-74
2023/08/02 10:38:46;;;;;;;4.63;3.27;;;;;;;;;;4990763;28;20267;-73
2023/08/02 10:41:14;;;;;;;5.00;3.20;;;;;;;;;;4990282;28;20180;-74
2023/08/02 10:43:57;;;;;;;4.50;3.20;;;;;;;;;;4990165;28;20191;-74
2023/08/02 10:46:32;;;;;;;6.90;3.37;;;;;;;;;;4989726;28;20223;-73
2023/08/02 10:49:10;;;;;;;3.80;3.10;;;;;;;;;;4990350;28;20202;-73
2023/08/02 10:51:37;;;;;;;5.83;3.70;;;;;;;;;;4990026;28;20246;-73
2023/08/02 10:54:25;;;;;;;4.07;3.50;;;;;;;;;;4990135;28;20679;-74
2023/08/02 10:56:51;;;;;;;4.67;3.67;;;;;;;;;;4989849;28;20212;-72
2023/08/02 10:59:18;;;;;;;4.67;3.83;;;;;;;;;;4989880;28;20223;-74
2023/08/02 11:02:13;;;;;;;4.53;3.57;;;;;;;;;;4989650;28;20525;-74
2023/08/02 11:04:44;;;;;;;5.17;3.80;;;;;;;;;;4973014;28;20202;-72
2023/08/02 11:07:14;;;;;;;5.67;3.33;;;;;;;;;;4972553;28;20184;-73
2023/08/02 11:09:41;;;;;;;4.63;3.33;;;;;;;;;;5035975;22;20222;-74
2023/08/02 11:12:10;;;;;;;5.80;3.70;;;;;;;;;;5012825;28;20257;-73
2023/08/02 11:14:36;;;;;;;5.53;3.47;;;;;;;;;;5030020;28;20187;-74
2023/08/02 11:17:03;;;;;;;4.27;3.60;;;;;;;;;;5030119;28;20264;-73
2023/08/02 11:19:29;;;;;;;4.70;3.80;;;;;;;;;;5030085;28;20203;-72
2023/08/02 11:21:56;;;;;;;3.73;3.30;;;;;;;;;;5030095;28;20183;-73
2023/08/02 11:24:22;;;;;;;4.70;3.63;;;;;;;;;;5014021;28;20273;-73
2023/08/02 11:26:55;;;;;;;5.47;3.47;;;;;;;;;;5029641;28;20214;-72
2023/08/02 11:29:22;;;;;;;4.77;4.10;;;;;;;;;;5012340;28;20257;-76
2023/08/02 11:31:48;;;;;;;4.00;3.60;;;;;;;;;;5030005;28;20684;-74
2023/08/02 11:34:20;;;;;;;6.83;5.20;;;;;;;;;;5012517;28;20201;-73
2023/08/02 11:36:47;;;;;;;6.17;4.23;;;;;;;;;;5011705;28;20264;-73
2023/08/02 11:39:14;;;;;;;4.57;3.80;;;;;;;;;;5012712;28;20302;-73
2023/08/02 11:41:41;;;;;;;5.77;3.40;;;;;;;;;;5029666;28;20217;-73
2023/08/02 11:44:16;;;;;;;5.33;3.63;;;;;;;;;;5028925;28;20712;-73
2023/08/02 11:46:42;;;;;;;6.87;3.90;;;;;;;;;;5011938;28;20218;-74
2023/08/02 11:49:09;;;;;;;4.93;3.53;;;;;;;;;;5029808;28;20202;-73
2023/08/02 11:51:41;;;;;;;4.77;4.27;;;;;;;;;;5012192;28;20182;-73
2023/08/02 11:54:08;;;;;;;5.37;3.73;;;;;;;;;;5024301;28;20193;-73
2023/08/02 11:56:35;;;;;;;5.43;4.10;;;;;;;;;;5011956;28;20206;-75
2023/08/02 11:59:01;;;;;;;4.90;4.20;;;;;;;;;;5018927;28;20210;-73
2023/08/02 12:01:27;;;;;;;3.90;3.50;;;;;;;;;;4993174;28;20193;-73
2023/08/02 12:03:57;;;;;;;5.70;4.27;;;;;;;;;;4978760;28;20331;-73
2023/08/02 12:06:24;;;;;;;4.40;4.00;;;;;;;;;;5030049;28;20570;-73
2023/08/02 12:09:00;;;;;;;5.07;4.00;;;;;;;;;;5030001;28;20243;-75
2023/08/02 12:11:26;;;;;;;5.07;4.13;;;;;;;;;;5029955;28;20197;-73
2023/08/02 12:13:52;;;;;;;5.80;4.50;;;;;;;;;;5029606;28;20186;-73
2023/08/02 12:16:20;;;;;;;5.00;4.50;;;;;;;;;;5029514;28;20251;-72
2023/08/02 12:18:57;;;;;;;5.60;4.30;;;;;;;;;;5029567;28;20198;-72
2023/08/02 12:21:24;;;;;;;7.03;4.63;;;;;;;;;;5012224;28;20222;-74
2023/08/02 12:23:51;;;;;;;6.27;4.57;;;;;;;;;;5029565;28;20197;-73
2023/08/02 12:26:33;;;;;;;5.03;4.53;;;;;;;;;;5029837;28;20189;-72
2023/08/02 12:28:59;;;;;;;5.27;4.43;;;;;;;;;;5024936;28;20681;-75
2023/08/02 12:31:26;;;;;;;6.63;4.97;;;;;;;;;;5011707;28;20189;-73
2023/08/02 12:33:52;;;;;;;5.33;4.33;;;;;;;;;;5035823;28;20241;-72
2023/08/02 12:36:28;;;;;;;5.50;4.53;;;;;;;;;;4995237;28;20305;-72
2023/08/02 12:38:57;;;;;;;6.50;5.03;;;;;;;;;;5001939;28;20747;-72
2023/08/02 12:41:24;;;;;;;6.03;5.43;;;;;;;;;;5029425;28;20697;-73
2023/08/02 12:43:50;;;;;;;5.63;4.87;;;;;;;;;;5028865;28;20186;-73
2023/08/02 12:46:17;;;;;;;5.37;4.57;;;;;;;;;;4996880;28;20261;-73
2023/08/02 12:48:43;;;;;;;5.77;4.60;;;;;;;;;;5029061;28;20301;-73
2023/08/02 12:51:10;;;;;;;5.57;4.80;;;;;;;;;;4980992;28;20665;-75
2023/08/02 12:53:37;;;;;;;5.73;5.00;;;;;;;;;;5029553;28;20205;-73
2023/08/02 12:56:03;;;;;;;5.17;4.67;;;;;;;;;;5026471;28;20210;-73
2023/08/02 12:58:29;;;;;;;5.27;4.50;;;;;;;;;;5020987;28;20190;-72
2023/08/02 13:00:56;;;;;;;5.43;4.23;;;;;;;;;;4997840;28;20191;-74
2023/08/02 13:03:22;;;;;;;5.80;4.53;;;;;;;;;;5014879;28;20594;-73
2023/08/02 13:05:48;;;;;;;5.03;4.50;;;;;;;;;;5014961;28;20189;-73
2023/08/02 13:08:14;;;;;;;5.80;4.43;;;;;;;;;;5016410;28;20178;-73
2023/08/02 13:10:41;;;;;;;5.37;4.67;;;;;;;;;;5032232;28;20266;-74
2023/08/02 13:13:07;;;;;;;5.97;4.83;;;;;;;;;;5014877;28;20191;-73
2023/08/02 13:15:33;;;;;;;5.17;4.67;;;;;;;;;;5032014;28;20229;-72
2023/08/02 13:17:59;;;;;;;5.70;4.87;;;;;;;;;;5014596;28;20265;-73
2023/08/02 13:20:27;;;;;;;6.27;4.93;;;;;;;;;;5014769;28;20238;-75
2023/08/02 13:22:54;;;;;;;6.10;5.00;;;;;;;;;;5032856;28;20187;-72
2023/08/02 13:25:20;;;;;;;6.03;5.37;;;;;;;;;;5032019;28;20602;-74
2023/08/02 13:27:46;;;;;;;6.10;5.10;;;;;;;;;;5014266;28;20182;-74
2023/08/02 13:30:12;;;;;;;5.57;5.07;;;;;;;;;;5032237;28;20209;-75
2023/08/02 13:32:39;;;;;;;7.03;5.00;;;;;;;;;;5038603;28;20186;-72
2023/08/02 13:35:06;;;;;;;5.97;5.33;;;;;;;;;;5031827;28;20213;-73
2023/08/02 13:37:38;;;;;;;7.73;5.67;;;;;;;;;;5031479;28;20254;-74
2023/08/02 13:40:04;;;;;;;5.63;5.00;;;;;;;;;;5026074;28;20751;-74
2023/08/02 13:42:31;;;;;;;6.77;5.63;;;;;;;;;;5013951;28;20197;-74
2023/08/02 13:44:57;;;;;;;5.93;5.30;;;;;;;;;;4999137;28;20186;-73
2023/08/02 13:47:24;;;;;;;6.97;4.70;;;;;;;;;;5001201;28;20230;-73
2023/08/02 13:49:52;;;;;;;6.33;4.97;;;;;;;;;;5013851;28;20621;-73
2023/08/02 13:52:18;;;;;;;5.23;4.73;;;;;;;;;;5031819;28;20201;-73
2023/08/02 13:54:44;;;;;;;6.53;4.90;;;;;;;;;;5031398;28;20190;-73
2023/08/02 13:57:10;;;;;;;5.33;4.73;;;;;;;;;;5017941;28;20206;-74
2023/08/02 13:59:38;;;;;;;5.77;4.97;;;;;;;;;;5033421;28;20206;-74
2023/08/02 14:02:10;;;;;;;6.10;4.70;;;;;;;;;;5025972;28;20187;-73
2023/08/02 14:04:36;;;;;;;7.87;5.53;;;;;;;;;;5031143;28;20269;-74
2023/08/02 14:07:04;;;;;;;6.10;5.03;;;;;;;;;;4993154;28;20729;-73
2023/08/02 14:09:30;;;;;;;5.97;4.90;;;;;;;;;;5010733;28;20210;-76
2023/08/02 14:11:56;;;;;;;5.80;5.00;;;;;;;;;;5013505;28;20187;-74
2023/08/02 14:14:23;;;;;;;5.83;4.80;;;;;;;;;;5043604;28;20583;-74
2023/08/02 14:16:49;;;;;;;5.83;5.20;;;;;;;;;;5030947;28;20230;-74
2023/08/02 14:19:15;;;;;;;8.13;5.03;;;;;;;;;;5031231;28;20213;-73
2023/08/02 14:21:41;;;;;;;5.00;4.40;;;;;;;;;;5031048;28;20179;-74
2023/08/02 14:24:07;;;;;;;6.07;4.47;;;;;;;;;;5030750;28;20183;-73
2023/08/02 14:26:33;;;;;;;5.53;4.70;;;;;;;;;;5012965;28;20187;-74
2023/08/02 14:28:59;;;;;;;6.17;4.50;;;;;;;;;;5024488;28;20297;-74
2023/08/02 14:31:25;;;;;;;5.17;4.53;;;;;;;;;;5031213;28;20274;-74
2023/08/02 14:33:51;;;;;;;5.70;4.40;;;;;;;;;;5013168;28;20217;-74
2023/08/02 14:36:18;;;;;;;4.63;3.97;;;;;;;;;;5030706;28;20223;-74
2023/08/02 14:38:44;;;;;;;6.07;4.67;;;;;;;;;;5013780;28;20203;-73
2023/08/02 14:41:11;;;;;;;6.67;4.10;;;;;;;;;;5018816;28;20243;-73
2023/08/02 14:43:37;;;;;;;5.37;3.93;;;;;;;;;;5030533;28;20866;-74
2023/08/02 14:46:03;;;;;;;4.30;3.90;;;;;;;;;;5024265;28;20313;-75